Time;durP1;ratioP1;P1;durP2;ratioP2;P2;SDS_P1;SDS_P2;PMS_P1;PMS_P2;Temp;Humidity;BMP_temperature;BMP_pressure;BME280_temperature;BME280_humidity;BME280_pressure;Samples;Min_cycle;Max_cycle;Signal;HPM_P1;HPM_P2
2022/05/19 00:01:06;;;;;;;22.58;16.00;;;;;;;-146.64;100.00;105861.69;5085773;28;20035;-72
2022/05/19 00:03:35;;;;;;;32.10;18.63;;;;;;;-146.64;100.00;106394.44;5085409;28;20664;-72
2022/05/19 00:06:00;;;;;;;26.27;16.20;;;;;;;-146.64;100.00;106394.44;5069362;28;20387;-73
2022/05/19 00:08:27;;;;;;;34.17;16.63;;;;;;;-146.64;100.00;106660.84;5087262;28;20032;-73
2022/05/19 00:10:55;;;;;;;27.70;16.50;;;;;;;-146.64;100.00;107193.69;5067202;28;20039;-73
2022/05/19 00:13:20;;;;;;;31.77;18.48;;;;;;;-146.64;100.00;107726.63;5088600;28;20040;-73
2022/05/19 00:15:46;;;;;;;37.13;18.10;;;;;;;-146.64;100.00;107993.13;5067521;28;20101;-72
2022/05/19 00:18:11;;;;;;;23.90;16.10;;;;;;;-146.64;100.00;108259.63;5070178;28;20111;-72
2022/05/19 00:20:36;;;;;;;22.33;16.10;;;;;;;-146.64;100.00;108792.72;5085182;28;20071;-73
2022/05/19 00:23:02;;;;;;;23.90;17.77;;;;;;;-146.64;100.00;108792.72;5086714;28;20035;-72
2022/05/19 00:25:27;;;;;;;31.60;16.87;;;;;;;-146.64;100.00;109059.28;5069980;28;20498;-73
2022/05/19 00:27:52;;;;;;;28.00;16.47;;;;;;;-146.64;100.00;108259.63;5083780;28;20466;-73
2022/05/19 00:30:18;;;;;;;22.50;16.87;;;;;;;-146.64;100.00;107193.69;5084783;28;20030;-73
2022/05/19 00:32:43;;;;;;;28.97;18.07;;;;;;;-146.64;100.00;108792.72;5087359;28;20028;-73
2022/05/19 00:35:08;;;;;;;30.53;16.57;;;;;;;-146.64;100.00;109859.06;5089029;28;20032;-73
2022/05/19 00:37:34;;;;;;;31.53;17.23;;;;;;;-146.64;100.00;109859.06;5072454;28;20382;-73
2022/05/19 00:39:59;;;;;;;25.63;17.80;;;;;;;-146.64;100.00;110925.69;5087483;28;20047;-73
2022/05/19 00:45:09;;;;;;;26.33;17.23;;;;;;;-146.64;100.00;111192.41;5075589;28;20027;-73
2022/05/19 00:47:39;;;;;;;28.70;18.40;;;;;;;-146.64;100.00;110925.69;5072264;28;20032;-73
2022/05/19 00:50:07;;;;;;;23.75;16.73;;;;;;;-146.64;100.00;111192.41;5069285;28;20391;-73
2022/05/19 00:52:39;;;;;;;30.08;16.60;;;;;;;-146.64;100.00;111459.13;5073619;28;20379;-72
2022/05/19 00:55:05;;;;;;;27.35;17.45;;;;;;;-146.64;100.00;110659.00;5068858;28;20103;-72
2022/05/19 00:57:34;;;;;;;29.73;18.90;;;;;;;-146.64;100.00;111459.13;5089771;28;20032;-72
2022/05/19 01:00:17;;;;;;;33.10;19.20;;;;;;;-146.64;100.00;111725.84;5086939;28;20046;-72
2022/05/19 01:03:03;;;;;;;28.88;18.35;;;;;;;-146.64;100.00;110925.69;5057120;28;20020;-71
2022/05/19 01:05:42;;;;;;;34.67;19.00;;;;;;;-146.64;100.00;110925.69;5071944;28;20058;-71
2022/05/19 01:08:12;;;;;;;29.80;17.63;;;;;;;-146.64;100.00;111192.41;5071508;28;20081;-71
2022/05/19 01:10:38;;;;;;;31.35;18.50;;;;;;;-146.64;100.00;110659.00;5070382;28;20036;-71
2022/05/19 01:13:04;;;;;;;34.78;19.35;;;;;;;-146.64;100.00;110659.00;5071926;28;20024;-72
2022/05/19 01:15:33;;;;;;;28.52;19.58;;;;;;;-146.64;100.00;110925.69;5067400;28;20044;-72
2022/05/19 01:17:59;;;;;;;30.55;21.02;;;;;;;-146.64;100.00;110659.00;5071784;28;20456;-73
2022/05/19 01:20:26;;;;;;;27.73;19.33;;;;;;;-146.64;100.00;110925.69;5087697;28;20024;-72
2022/05/19 01:22:51;;;;;;;;;;;;;;;-146.64;100.00;109859.06;5073518;28;20043;-72
2022/05/19 01:25:29;;;;;;;31.27;19.40;;;;;;;-146.64;100.00;109859.06;5091318;28;19916;-72
2022/05/19 01:27:55;;;;;;;32.13;20.08;;;;;;;-146.64;100.00;110392.34;5070844;28;20307;-72
2022/05/19 01:30:20;;;;;;;31.30;19.53;;;;;;;-146.64;100.00;110125.69;5055121;28;20483;-73
2022/05/19 01:32:45;;;;;;;29.37;19.40;;;;;;;-146.64;100.00;109859.06;5073217;28;20036;-73
2022/05/19 01:35:12;;;;;;;30.83;19.47;;;;;;;-146.64;100.00;109592.44;5055300;28;20452;-73
2022/05/19 01:37:38;;;;;;;35.70;20.08;;;;;;;-146.64;100.00;108526.16;5091202;28;20130;-72
2022/05/19 01:40:18;;;;;;;33.57;20.43;;;;;;;-146.64;100.00;108526.16;5070780;28;20107;-73
2022/05/19 01:42:52;;;;;;;30.63;20.23;;;;;;;-146.64;100.00;110125.69;5076414;28;20586;-72
2022/05/19 01:45:36;;;;;;;34.17;19.85;;;;;;;-146.64;100.00;109859.06;5078878;28;20081;-73
2022/05/19 01:48:13;;;;;;;39.17;20.77;;;;;;;-146.64;100.00;110125.69;5087825;28;20073;-73
2022/05/19 01:50:44;;;;;;;30.95;20.65;;;;;;;-146.64;100.00;109859.06;5069468;28;20053;-72
2022/05/19 01:53:15;;;;;;;30.92;20.15;;;;;;;-146.64;100.00;109592.44;5056303;28;20062;-73
2022/05/19 01:55:53;;;;;;;33.20;21.45;;;;;;;-146.64;100.00;109859.06;5088654;28;20047;-72
2022/05/19 01:58:28;;;;;;;39.42;21.33;;;;;;;-146.64;100.00;108792.72;5068601;28;20122;-72
2022/05/19 02:00:56;;;;;;;35.13;21.55;;;;;;;-146.64;100.00;109059.28;5080817;28;20063;-73
2022/05/19 02:03:32;;;;;;;31.40;20.52;;;;;;;-146.64;100.00;110659.00;5069511;28;20132;-73
2022/05/19 02:06:03;;;;;;;48.03;23.27;;;;;;;-146.64;100.00;115729.00;5071322;28;20051;-73
2022/05/19 02:08:45;;;;;;;40.70;22.63;;;;;;;-146.64;100.00;117331.34;5056654;28;20334;-73
2022/05/19 02:11:15;;;;;;;34.53;23.20;;;;;;;-146.64;100.00;118399.94;5063150;28;20016;-75
2022/05/19 02:13:41;;;;;;;36.30;23.40;;;;;;;-146.64;100.00;118402.03;5088833;28;20065;-74
2022/05/19 02:16:08;;;;;;;48.07;27.03;;;;;;;-146.64;100.00;118402.03;5071101;28;20467;-74
2022/05/19 02:18:34;;;;;;;44.83;27.02;;;;;;;-146.64;100.00;118402.03;5072635;28;20028;-73
2022/05/19 02:21:01;;;;;;;42.37;27.93;;;;;;;-146.64;100.00;118402.03;5080115;28;20385;-74
2022/05/19 02:23:27;;;;;;;36.60;18.80;;;;;;;-146.64;100.00;118402.03;5090472;28;20035;-74
2022/05/19 02:25:53;;;;;;;29.10;9.80;;;;;;;-146.64;100.00;118402.03;5088255;28;20028;-75
2022/05/19 02:28:30;;;;;;;25.85;5.22;;;;;;;-146.64;100.00;118402.03;5072754;28;20055;-75
2022/05/19 02:30:56;;;;;;;21.98;4.30;;;;;;;-146.64;100.00;118402.03;5051709;28;20028;-74
2022/05/19 02:33:21;;;;;;;12.50;2.97;;;;;;;-146.64;100.00;118402.03;5053184;28;20487;-76
2022/05/19 02:35:47;;;;;;;4.30;1.90;;;;;;;-146.64;100.00;118402.03;5049328;28;20035;-75
2022/05/19 02:38:14;;;;;;;5.10;1.53;;;;;;;-146.64;100.00;118402.03;5083206;28;20028;-75
2022/05/19 02:40:41;;;;;;;5.97;2.50;;;;;;;-146.64;100.00;118402.03;5051190;28;20066;-74
2022/05/19 02:43:07;;;;;;;5.35;1.95;;;;;;;-146.64;100.00;118402.03;5067886;28;20032;-74
2022/05/19 02:45:33;;;;;;;5.85;2.20;;;;;;;-146.64;100.00;118402.03;5071669;28;20040;-73
2022/05/19 02:47:59;;;;;;;4.10;2.20;;;;;;;-146.64;100.00;118402.03;5054982;28;20117;-73
2022/05/19 02:50:24;;;;;;;7.30;2.30;;;;;;;-146.64;100.00;118402.03;5058903;28;20123;-73
2022/05/19 02:52:50;;;;;;;11.63;2.87;;;;;;;-146.64;100.00;118402.03;5066733;28;20024;-73
2022/05/19 02:55:16;;;;;;;7.53;2.70;;;;;;;-146.64;100.00;118402.03;5071075;28;20035;-73
2022/05/19 02:57:42;;;;;;;8.20;2.70;;;;;;;-146.64;100.00;118402.03;5069060;28;20029;-73
2022/05/19 03:00:12;;;;;;;9.98;3.33;;;;;;;-146.64;100.00;118402.03;5070311;28;20498;-73
2022/05/19 03:02:38;;;;;;;10.45;3.78;;;;;;;-146.64;100.00;118402.03;5067612;28;20024;-74
2022/05/19 03:05:04;;;;;;;11.23;4.10;;;;;;;-146.64;100.00;118402.03;5068447;28;20384;-72
2022/05/19 03:07:29;;;;;;;12.52;4.97;;;;;;;-146.64;100.00;118402.03;5066569;28;20074;-73
2022/05/19 03:09:55;;;;;;;14.10;4.83;;;;;;;-146.64;100.00;118402.03;5086201;28;20024;-73
2022/05/19 03:12:20;;;;;;;15.40;5.30;;;;;;;-146.64;100.00;118402.03;5070289;28;20028;-73
2022/05/19 03:14:45;;;;;;;9.30;5.00;;;;;;;-146.64;100.00;118402.03;5088927;28;20036;-73
2022/05/19 03:17:11;;;;;;;9.80;5.07;;;;;;;-146.64;100.00;118402.03;5089795;28;20035;-73
2022/05/19 03:19:37;;;;;;;8.67;4.67;;;;;;;-146.64;100.00;118402.03;5069341;28;20103;-73
2022/05/19 03:22:03;;;;;;;;;;;;;;;-146.64;100.00;118402.03;5070326;28;20036;-73
2022/05/19 03:24:29;;;;;;;9.48;4.55;;;;;;;-146.64;100.00;118402.03;5065366;28;19939;-73
2022/05/19 03:26:54;;;;;;;6.63;4.20;;;;;;;-146.64;100.00;118402.03;5033099;28;20127;-74
2022/05/19 03:29:20;;;;;;;9.33;3.57;;;;;;;-146.64;100.00;118402.03;5065511;28;20039;-73
2022/05/19 03:31:46;;;;;;;8.27;4.03;;;;;;;-146.64;100.00;118402.03;5069482;28;20067;-74
2022/05/19 03:34:11;;;;;;;8.37;3.80;;;;;;;-146.64;100.00;118402.03;5053161;28;20120;-73
2022/05/19 03:36:36;;;;;;;8.43;4.27;;;;;;;-146.64;100.00;118402.03;5066872;28;20119;-73
2022/05/19 03:39:03;;;;;;;6.93;3.80;;;;;;;-146.64;100.00;118402.03;5081185;28;20028;-73
2022/05/19 03:41:29;;;;;;;9.90;3.63;;;;;;;-146.64;100.00;118402.03;5060874;28;20043;-73
2022/05/19 03:43:54;;;;;;;8.43;3.70;;;;;;;-146.64;100.00;118402.03;5064821;28;20036;-73
2022/05/19 03:46:19;;;;;;;5.30;2.70;;;;;;;-146.64;100.00;118402.03;5063053;28;21013;-73
2022/05/19 03:48:45;;;;;;;6.50;3.40;;;;;;;-146.64;100.00;118402.03;5063759;28;20019;-73
2022/05/19 03:51:22;;;;;;;4.70;2.83;;;;;;;-146.64;100.00;118402.03;5066108;28;20491;-73
2022/05/19 03:53:48;;;;;;;9.20;3.40;;;;;;;-146.64;100.00;118402.03;5067169;28;20028;-73
2022/05/19 03:56:13;;;;;;;10.10;3.87;;;;;;;-146.64;100.00;118402.03;5053729;28;20096;-75
2022/05/19 03:58:38;;;;;;;9.37;3.83;;;;;;;-146.64;100.00;118402.03;5088829;28;20084;-73
2022/05/19 04:01:05;;;;;;;23.53;4.17;;;;;;;-146.64;100.00;118402.03;5068741;28;20028;-73
2022/05/19 04:03:30;;;;;;;9.48;3.85;;;;;;;-146.64;100.00;118402.03;5067808;28;20036;-74
2022/05/19 04:05:57;;;;;;;8.43;3.83;;;;;;;-146.64;100.00;118402.03;5084331;28;20476;-73
2022/05/19 04:08:22;;;;;;;;;;;;;;;-146.64;100.00;118402.03;5077943;28;20020;-73
2022/05/19 04:10:48;;;;;;;5.05;3.50;;;;;;;-146.64;100.00;118402.03;5064552;28;19916;-74
2022/05/19 04:13:14;;;;;;;12.43;5.55;;;;;;;-146.64;100.00;118402.03;5087812;28;20032;-74
2022/05/19 04:15:39;;;;;;;12.17;5.33;;;;;;;-146.64;100.00;118402.03;5090793;28;20125;-73
2022/05/19 04:18:05;;;;;;;8.70;5.17;;;;;;;-146.64;100.00;118402.03;5068883;28;20360;-73
2022/05/19 04:20:30;;;;;;;9.90;5.27;;;;;;;-146.64;100.00;118402.03;5091513;28;20119;-73
2022/05/19 04:22:59;;;;;;;10.67;5.83;;;;;;;-146.64;100.00;118402.03;5087998;28;20020;-73
2022/05/19 04:25:25;;;;;;;14.45;6.43;;;;;;;-146.64;100.00;118402.03;5090683;28;20303;-72
2022/05/19 04:27:51;;;;;;;6.97;4.90;;;;;;;-146.64;100.00;118402.03;5056225;28;20039;-72
2022/05/19 04:30:17;;;;;;;7.83;4.53;;;;;;;-146.64;100.00;118402.03;5052419;28;20081;-72
2022/05/19 04:32:43;;;;;;;11.55;5.72;;;;;;;-146.64;100.00;118402.03;5050132;28;20109;-72
2022/05/19 04:35:09;;;;;;;15.03;5.57;;;;;;;-146.64;100.00;118402.03;5073772;28;20048;-73
2022/05/19 04:37:35;;;;;;;11.65;6.45;;;;;;;-146.64;100.00;118402.03;5072692;28;20321;-72
2022/05/19 04:40:01;;;;;;;12.87;6.30;;;;;;;-146.64;100.00;118402.03;5073477;28;20551;-73
2022/05/19 04:42:26;;;;;;;15.07;7.68;;;;;;;-146.64;100.00;118402.03;5070135;28;20028;-72
2022/05/19 04:44:54;;;;;;;11.77;6.33;;;;;;;-146.64;100.00;118402.03;5054469;28;20097;-73
2022/05/19 04:47:19;;;;;;;10.55;5.75;;;;;;;-146.64;100.00;118402.03;5061376;28;20052;-72
2022/05/19 04:49:44;;;;;;;13.20;6.30;;;;;;;-146.64;100.00;118402.03;5072910;28;20512;-72
2022/05/19 04:52:10;;;;;;;9.97;5.53;;;;;;;-146.64;100.00;118402.03;5072751;28;20050;-72
2022/05/19 04:54:35;;;;;;;9.97;6.30;;;;;;;-146.64;100.00;118402.03;5053229;28;20031;-73
2022/05/19 04:57:00;;;;;;;11.13;5.50;;;;;;;-146.64;100.00;118402.03;5055871;28;20471;-72
2022/05/19 04:59:26;;;;;;;7.30;5.90;;;;;;;-146.64;100.00;118402.03;5057502;28;20146;-73
2022/05/19 05:01:51;;;;;;;12.00;6.60;;;;;;;-146.64;100.00;118402.03;5088486;28;20497;-72
2022/05/19 05:04:16;;;;;;;16.53;6.90;;;;;;;-146.64;100.00;118402.03;5088465;28;20115;-73
2022/05/19 05:06:42;;;;;;;13.63;6.53;;;;;;;-146.64;100.00;118402.03;5071801;28;20012;-72
2022/05/19 05:09:08;;;;;;;10.10;6.33;;;;;;;-146.64;100.00;118402.03;5089248;28;20103;-73
2022/05/19 05:11:34;;;;;;;12.48;6.43;;;;;;;-146.64;100.00;118402.03;5091059;28;20027;-72
2022/05/19 05:13:59;;;;;;;16.17;6.93;;;;;;;-146.64;100.00;118402.03;5089514;28;20023;-73
2022/05/19 05:16:25;;;;;;;11.90;7.33;;;;;;;-146.64;100.00;118402.03;5072561;28;20379;-72
2022/05/19 05:18:50;;;;;;;10.67;6.57;;;;;;;-146.64;100.00;118402.03;5072334;28;20088;-72
2022/05/19 05:21:16;;;;;;;13.27;7.27;;;;;;;-146.64;100.00;118402.03;5069909;28;20051;-72
2022/05/19 05:23:41;;;;;;;17.00;6.73;;;;;;;-146.64;100.00;118402.03;5072029;28;20035;-72
2022/05/19 05:26:07;;;;;;;14.27;7.07;;;;;;;-146.64;100.00;118402.03;5071469;28;20423;-73
2022/05/19 05:28:33;;;;;;;10.05;6.43;;;;;;;-146.64;100.00;118402.03;5054464;28;20481;-72
2022/05/19 05:30:59;;;;;;;8.05;6.38;;;;;;;-146.64;100.00;118402.03;5069691;28;20206;-72
2022/05/19 05:33:24;;;;;;;13.67;6.90;;;;;;;-146.64;100.00;118402.03;5073230;28;20119;-73
2022/05/19 05:35:50;;;;;;;15.83;6.87;;;;;;;-146.64;100.00;118402.03;5070950;28;20311;-72
2022/05/19 05:38:15;;;;;;;16.13;7.37;;;;;;;-146.64;100.00;118402.03;5070495;28;20042;-72
2022/05/19 05:40:40;;;;;;;10.83;6.63;;;;;;;-146.64;100.00;118402.03;5054207;28;20032;-72
2022/05/19 05:43:06;;;;;;;10.90;7.33;;;;;;;-146.64;100.00;118402.03;5089991;28;20111;-72
2022/05/19 05:45:32;;;;;;;13.40;7.50;;;;;;;-146.64;100.00;118402.03;5071164;28;20033;-71
2022/05/19 05:47:57;;;;;;;10.67;7.30;;;;;;;-146.64;100.00;118402.03;5069762;28;20532;-72
2022/05/19 05:50:22;;;;;;;13.77;6.73;;;;;;;-146.64;100.00;118402.03;5054680;28;20036;-72
2022/05/19 05:52:48;;;;;;;15.63;7.83;;;;;;;-146.64;100.00;118402.03;5055781;28;20448;-73
2022/05/19 05:55:13;;;;;;;12.93;7.53;;;;;;;-146.64;100.00;118402.03;5068020;28;20061;-73
2022/05/19 05:57:38;;;;;;;14.23;7.43;;;;;;;-146.64;100.00;118366.56;5089291;28;20104;-73
2022/05/19 06:00:07;;;;;;;13.83;7.60;;;;;;;-146.64;100.00;117018.34;5048892;28;20465;-73
2022/05/19 06:02:33;;;;;;;12.25;7.85;;;;;;;-146.64;100.00;116033.56;5068343;28;20036;-73
2022/05/19 06:04:58;;;;;;;9.63;7.30;;;;;;;-146.64;100.00;118402.03;5069243;28;20111;-73
2022/05/19 06:07:27;;;;;;;17.33;7.40;;;;;;;-146.64;100.00;118224.63;5086130;28;20030;-71
2022/05/19 06:09:53;;;;;;;9.68;7.13;;;;;;;-146.64;100.00;109252.97;5062832;28;20452;-72
2022/05/19 06:12:18;;;;;;;11.50;8.10;;;;;;;-146.64;100.00;95756.69;5069512;28;20062;-72
2022/05/19 06:14:43;;;;;;;13.13;7.67;;;;;;;-146.64;100.00;90180.88;5068133;28;20411;-72
2022/05/19 06:17:09;;;;;;;11.87;7.20;;;;;;;-146.64;100.00;90446.22;5088741;28;20419;-74
2022/05/19 06:19:34;;;;;;;12.67;7.23;;;;;;;-146.64;100.00;110654.84;5089089;28;20032;-73
2022/05/19 06:22:00;;;;;;;12.63;7.53;;;;;;;-146.64;100.00;118402.03;5070863;28;20046;-74
2022/05/19 06:24:25;;;;;;;15.87;7.63;;;;;;;-146.64;100.00;118402.03;5071857;28;20032;-74
2022/05/19 06:26:50;;;;;;;9.27;7.07;;;;;;;-146.64;100.00;118402.03;5049270;28;20021;-73
2022/05/19 06:29:16;;;;;;;13.67;7.07;;;;;;;-146.64;100.00;118402.03;5087163;28;20154;-74
2022/05/19 06:31:41;;;;;;;16.07;6.47;;;;;;;-146.64;100.00;118402.03;5066461;28;20442;-73
2022/05/19 06:34:06;;;;;;;13.47;6.60;;;;;;;-146.64;100.00;118402.03;5063539;28;20034;-74
2022/05/19 06:36:32;;;;;;;9.10;5.93;;;;;;;-146.64;100.00;118402.03;5065662;28;20039;-73
2022/05/19 06:38:58;;;;;;;10.33;6.17;;;;;;;-146.64;100.00;118402.03;5051627;28;20024;-73
2022/05/19 06:44:07;;;;;;;9.02;5.35;;;;;;;-146.64;100.00;118402.03;5067383;28;20043;-73
2022/05/19 06:46:33;;;;;;;14.03;5.43;;;;;;;-146.64;100.00;118402.03;5084300;28;20459;-74
2022/05/19 06:49:02;;;;;;;9.95;5.35;;;;;;;-146.64;100.00;118402.03;5086502;28;20045;-73
2022/05/19 06:51:28;;;;;;;8.93;5.15;;;;;;;-146.64;100.00;118402.03;5069243;28;20085;-73
2022/05/19 06:53:53;;;;;;;13.57;5.53;;;;;;;-146.64;100.00;118402.03;5070290;28;20020;-73
2022/05/19 06:56:18;;;;;;;9.10;4.60;;;;;;;-146.64;100.00;118402.03;5069712;28;20434;-73
2022/05/19 06:58:44;;;;;;;5.83;4.93;;;;;;;-146.64;100.00;118402.03;5072793;28;20024;-73
2022/05/19 07:01:09;;;;;;;7.20;4.60;;;;;;;-146.64;100.00;118399.94;5089612;28;20054;-73
2022/05/19 07:03:34;;;;;;;10.17;4.53;;;;;;;-146.64;100.00;118402.03;5071691;28;20075;-73
2022/05/19 07:06:00;;;;;;;11.40;4.70;;;;;;;-146.64;100.00;118402.03;5053860;28;20387;-73
2022/05/19 07:08:25;;;;;;;6.20;4.23;;;;;;;-146.64;100.00;117598.47;5069794;28;20730;-72
2022/05/19 07:10:51;;;;;;;8.20;4.70;;;;;;;-146.64;100.00;118132.78;5066470;28;20468;-74
2022/05/19 07:13:16;;;;;;;7.67;4.87;;;;;;;-146.64;100.00;116797.16;5080308;28;20410;-73
2022/05/19 07:15:41;;;;;;;6.40;5.27;;;;;;;-146.64;100.00;116530.09;5068068;28;20043;-73
2022/05/19 07:18:08;;;;;;;8.33;4.97;;;;;;;-146.64;100.00;117064.25;5064350;28;20036;-76
2022/05/19 07:20:49;;;;;;;5.80;4.18;;;;;;;-146.64;100.00;117331.34;5067789;28;20074;-75
2022/05/19 07:23:21;;;;;;;8.55;4.75;;;;;;;-146.64;100.00;117598.47;5073183;28;20024;-75
2022/05/19 07:25:47;;;;;;;15.70;5.15;;;;;;;-146.64;100.00;116797.16;5066393;28;20497;-75
2022/05/19 07:28:13;;;;;;;9.43;5.18;;;;;;;-146.64;100.00;117598.47;5052305;28;20020;-74
2022/05/19 07:30:40;;;;;;;6.22;5.03;;;;;;;-146.64;100.00;117331.34;5068123;28;20043;-75
2022/05/19 07:33:06;;;;;;;5.20;4.70;;;;;;;-146.64;100.00;116797.16;5062264;28;20016;-76
2022/05/19 07:35:31;;;;;;;7.47;4.90;;;;;;;-146.64;100.00;115729.00;5052267;28;20536;-76
2022/05/19 07:37:57;;;;;;;6.07;4.97;;;;;;;-146.64;100.00;115195.03;5049302;28;20024;-74
2022/05/19 07:40:22;;;;;;;7.83;4.90;;;;;;;-146.64;100.00;114394.19;5065897;28;20095;-75
2022/05/19 07:42:47;;;;;;;6.07;4.77;;;;;;;-146.64;100.00;114394.19;5066880;28;20395;-75
2022/05/19 07:45:15;;;;;;;9.10;5.20;;;;;;;-146.64;100.00;113593.50;5087237;28;20043;-75
2022/05/19 07:47:40;;;;;;;8.07;5.38;;;;;;;-146.64;100.00;113059.81;5065555;28;20064;-75
2022/05/19 07:50:07;;;;;;;9.25;5.60;;;;;;;-146.64;100.00;110659.00;5070044;28;20455;-75
2022/05/19 07:52:32;;;;;;;7.07;5.32;;;;;;;-146.64;100.00;113860.38;5067057;28;20077;-75
2022/05/19 07:54:57;;;;;;;14.93;6.50;;;;;;;-146.64;100.00;115462.00;5067204;28;20039;-75
2022/05/19 07:57:23;;;;;;;7.27;5.77;;;;;;;-146.64;100.00;114661.13;5066443;28;20024;-75
2022/05/19 07:59:49;;;;;;;11.67;7.07;;;;;;;-146.64;100.00;114394.19;5066223;28;20056;-75
2022/05/19 08:02:14;;;;;;;7.18;5.90;;;;;;;-146.64;100.00;112259.38;5065832;28;20760;-74
2022/05/19 08:04:40;;;;;;;8.83;5.47;;;;;;;-146.64;100.00;117064.25;5068206;28;20486;-75
2022/05/19 08:07:06;;;;;;;12.77;6.82;;;;;;;-146.64;100.00;118402.03;5068315;28;20107;-75
2022/05/19 08:15:34;;;;;;;9.30;5.80;;;;;;;-146.64;100.00;116797.16;5074292;28;20127;-75
2022/05/19 08:17:51;;;;;;;8.60;6.72;;;;;;;-146.64;100.00;118402.03;5092899;28;20070;-76
2022/05/19 08:20:18;;;;;;;17.17;6.80;;;;;;;-146.64;100.00;118402.03;5096252;28;20031;-73
2022/05/19 08:22:43;;;;;;;13.32;6.40;;;;;;;-146.64;100.00;118132.78;5108231;28;20035;-76
2022/05/19 08:25:09;;;;;;;7.90;6.23;;;;;;;-146.64;100.00;118402.03;5079503;28;20023;-76
2022/05/19 08:27:34;;;;;;;11.87;7.00;;;;;;;-146.64;100.00;117598.47;5086479;28;20020;-76
2022/05/19 08:29:59;;;;;;;13.33;7.67;;;;;;;-146.64;100.00;117331.34;5113025;28;20371;-75
2022/05/19 08:32:24;;;;;;;10.00;6.77;;;;;;;-146.64;100.00;118132.78;5075392;28;20047;-75
2022/05/19 08:34:50;;;;;;;7.87;5.90;;;;;;;-146.64;100.00;115996.03;5075237;28;20038;-74
2022/05/19 08:37:15;;;;;;;8.63;5.63;;;;;;;-146.64;100.00;112526.16;5085868;28;20469;-75
2022/05/19 08:39:40;;;;;;;9.63;6.13;;;;;;;-146.64;100.00;104530.09;5110000;28;20073;-76
2022/05/19 08:42:07;;;;;;;14.63;7.67;;;;;;;-146.64;100.00;109859.06;5106972;28;20034;-74
2022/05/19 08:44:35;;;;;;;10.98;6.43;;;;;;;-146.64;100.00;100271.94;5083908;28;20029;-74
2022/05/19 08:47:03;;;;;;;11.63;6.80;;;;;;;-146.64;100.00;93627.50;5090583;28;20364;-75
2022/05/19 08:49:39;;;;;;;9.48;6.15;;;;;;;-146.64;100.00;96018.25;5085338;28;20031;-74
2022/05/19 08:52:16;;;;;;;8.93;6.10;;;;;;;-146.64;100.00;89380.81;5104483;28;20032;-75
2022/05/19 08:54:45;;;;;;;7.00;5.90;;;;;;;-146.64;100.00;93096.44;5081655;28;20354;-74
2022/05/19 08:57:45;;;;;;;7.70;6.00;;;;;;;-146.64;100.00;75609.88;5084509;28;20024;-74
2022/05/19 09:00:19;;;;;;;9.85;6.05;;;;;;;-146.64;100.00;71646.25;5106858;28;20695;-76
2022/05/19 09:02:54;;;;;;;12.98;6.07;;;;;;;-146.64;100.00;47385.09;5085171;28;20035;-75
2022/05/19 09:05:34;;;;;;;13.00;6.45;;;;;;;-146.64;100.00;65312.66;5102905;28;20440;-76
2022/05/19 09:08:27;;;;;;;10.38;6.22;;;;;;;-146.64;100.00;80636.09;5107043;28;20024;-75
2022/05/19 09:11:10;;;;;;;8.88;6.40;;;;;;;-146.64;100.00;44396.16;5113438;28;20119;-76
2022/05/19 09:13:57;;;;;;;8.65;6.38;;;;;;;-146.64;100.00;77196.41;5086803;28;20042;-75
2022/05/19 09:16:29;;;;;;;9.65;6.55;;;;;;;-146.64;100.00;70589.97;5107566;28;20039;-76
2022/05/19 09:19:12;;;;;;;10.20;6.90;;;;;;;-146.64;100.00;36031.84;5095319;28;20039;-76
2022/05/19 09:21:39;;;;;;;11.10;6.97;;;;;;;-146.64;100.00;45755.03;5071766;28;20088;-76
2022/05/19 09:24:05;;;;;;;8.18;6.13;;;;;;;-146.64;100.00;40604.84;5103562;28;20035;-76
2022/05/19 09:26:33;;;;;;;;;;;;;;;-146.64;100.00;41505.75;5075076;28;20062;-76
2022/05/19 09:29:06;;;;;;;13.63;7.60;;;;;;;-146.64;100.00;35976.66;5087474;28;19923;-76
2022/05/19 09:31:36;;;;;;;7.53;6.65;;;;;;;-146.64;100.00;35164.91;5084725;28;20150;-75
2022/05/19 09:34:02;;;;;;;8.40;6.80;;;;;;;-146.64;100.00;50203.88;5087680;28;20039;-76
2022/05/19 09:36:27;;;;;;;10.85;7.07;;;;;;;-146.64;100.00;65576.34;5065624;28;20016;-75
2022/05/19 09:38:59;;;;;;;11.40;6.70;;;;;;;-146.64;100.00;38224.59;5056741;28;20479;-76
2022/05/19 09:41:34;;;;;;;11.60;8.07;;;;;;;-146.64;100.00;35060.66;5090357;28;20150;-77
2022/05/19 09:44:00;;;;;;;9.25;6.97;;;;;;;-146.64;100.00;34641.56;5112633;28;20027;-76
2022/05/19 09:46:55;;;;;;;11.52;7.88;;;;;;;-146.64;100.00;34801.03;5093649;28;20036;-75
2022/05/19 09:49:33;;;;;;;11.65;7.35;;;;;;;-146.64;100.00;34749.91;5072674;28;20089;-76
2022/05/19 09:52:04;;;;;;;10.88;7.45;;;;;;;-146.64;100.00;34441.25;5080550;28;20122;-77
2022/05/19 09:54:31;;;;;;;10.90;7.13;;;;;;;-146.64;100.00;34294.09;5074165;28;20056;-77
2022/05/19 09:57:04;;;;;;;10.52;7.38;;;;;;;-146.64;100.00;34588.44;5087800;28;20031;-77
2022/05/19 09:59:37;;;;;;;12.88;7.80;;;;;;;-146.64;100.00;34465.78;5094336;28;20030;-76
2022/05/19 10:02:18;;;;;;;13.82;8.23;;;;;;;-146.64;100.00;34737.66;5094010;28;20478;-77
2022/05/19 10:04:55;;;;;;;10.27;7.93;;;;;;;-146.64;100.00;34662.03;5094476;28;20036;-76
2022/05/19 10:07:23;;;;;;;11.15;7.35;;;;;;;-146.64;100.00;34480.09;5112862;28;20035;-76
2022/05/19 10:09:54;;;;;;;12.65;7.25;;;;;;;-146.64;100.00;34704.94;5093659;28;20024;-76
2022/05/19 10:12:31;;;;;;;16.17;7.25;;;;;;;-146.64;100.00;34138.75;5099113;28;20028;-77
2022/05/19 10:15:03;;;;;;;12.43;8.52;;;;;;;-146.64;100.00;34600.69;5073859;28;20169;-76
2022/05/19 10:17:56;;;;;;;10.65;8.50;;;;;;;-146.64;100.00;34723.34;5074028;28;20030;-76
2022/05/19 10:20:23;;;;;;;14.52;8.52;;;;;;;-146.64;100.00;34457.59;5073853;28;20028;-76
2022/05/19 10:23:27;;;;;;;14.90;8.75;;;;;;;-146.64;100.00;34414.69;5092185;28;20623;-76
2022/05/19 10:26:34;;;;;;;12.55;8.25;;;;;;;-146.64;100.00;34772.41;5103531;28;20027;-76
2022/05/19 10:32:12;;;;;;;11.20;8.82;;;;;;;-146.64;100.00;35986.88;5112459;28;20047;-75
2022/05/19 10:34:59;;;;;;;17.73;8.55;;;;;;;-146.64;100.00;45617.69;5112375;28;20023;-77
2022/05/19 10:37:35;;;;;;;14.68;9.52;;;;;;;-146.64;100.00;40787.06;5105773;28;20084;-78
2022/05/19 10:40:32;;;;;;;13.18;9.90;;;;;;;-146.64;100.00;53990.06;5081736;28;20475;-76
2022/05/19 10:43:06;;;;;;;11.18;9.55;;;;;;;-146.64;100.00;70061.91;5073778;28;20035;-76
2022/05/19 10:45:39;;;;;;;15.15;10.65;;;;;;;-146.64;100.00;102134.31;5095850;28;20031;-77
2022/05/19 10:48:35;;;;;;;15.60;9.45;;;;;;;-146.64;100.00;103465.13;5077915;28;20088;-76
2022/05/19 10:51:10;;;;;;;12.05;9.85;;;;;;;-146.64;100.00;101336.06;5105430;28;20143;-75
2022/05/19 10:54:01;;;;;;;15.13;11.07;;;;;;;-146.64;100.00;107726.63;5081501;28;20033;-75
2022/05/19 10:56:45;;;;;;;35.63;15.70;;;;;;;-146.64;100.00;118402.03;5065858;28;20663;-75
2022/05/19 10:59:22;;;;;;;39.65;15.70;;;;;;;-146.64;100.00;118402.03;5099636;28;20109;-76
2022/05/19 11:01:56;;;;;;;16.13;6.57;;;;;;;-146.64;100.00;118402.03;5100175;28;20541;-79
2022/05/19 11:04:41;;;;;;;16.65;4.38;;;;;;;-146.64;100.00;118402.03;5096438;28;20106;-76
2022/05/19 11:07:29;;;;;;;30.92;5.82;;;;;;;-146.64;100.00;118402.03;5065206;28;20072;-76
2022/05/19 11:10:08;;;;;;;11.07;6.35;;;;;;;-146.64;100.00;118402.03;5073633;28;20024;-76
2022/05/19 11:12:55;;;;;;;20.70;8.48;;;;;;;-146.64;100.00;118402.03;5079815;28;20031;-76
2022/05/19 11:15:23;;;;;;;19.45;7.60;;;;;;;-146.64;100.00;118402.03;5067620;28;20030;-75
2022/05/19 11:17:58;;;;;;;15.15;6.15;;;;;;;-146.64;100.00;118402.03;5088542;28;20024;-77
2022/05/19 11:20:28;;;;;;;14.48;6.88;;;;;;;-146.64;100.00;118402.03;5076686;28;20032;-76